Time;durP1;ratioP1;P1;durP2;ratioP2;P2;SDS_P1;SDS_P2;PMS_P1;PMS_P2;Temp;Humidity;BMP_temperature;BMP_pressure;BME280_temperature;BME280_humidity;BME280_pressure;Samples;Min_cycle;Max_cycle;Signal;HPM_P1;HPM_P2
2021/12/20 00:00:48;;;;;;;47.78;16.48;;;;;;;-1.87;100.00;97485.38;4932505;28;20052;-62
2021/12/20 00:03:14;;;;;;;40.50;16.45;;;;;;;-2.00;100.00;97477.84;4922164;28;20054;-65
2021/12/20 00:05:41;;;;;;;37.17;14.57;;;;;;;-1.73;100.00;97477.59;4926682;28;20397;-63
2021/12/20 00:08:06;;;;;;;39.88;14.18;;;;;;;-1.79;100.00;97482.16;4921277;28;20414;-64
2021/12/20 00:10:32;;;;;;;33.83;12.95;;;;;;;-1.55;100.00;97481.63;4925414;29;20059;-60
2021/12/20 00:12:57;;;;;;;35.03;14.45;;;;;;;-1.56;100.00;97482.72;4926938;28;20067;-65
2021/12/20 00:15:23;;;;;;;31.63;13.85;;;;;;;-1.43;100.00;97484.06;4921069;28;20618;-65
2021/12/20 00:17:48;;;;;;;37.55;13.90;;;;;;;-1.48;100.00;97482.16;4926224;28;20040;-66
2021/12/20 00:20:14;;;;;;;35.03;12.80;;;;;;;-1.37;100.00;97472.22;4919593;28;20473;-65
2021/12/20 00:22:40;;;;;;;32.22;13.65;;;;;;;-1.52;100.00;97481.09;4925119;29;20040;-66
2021/12/20 00:25:06;;;;;;;33.88;13.57;;;;;;;-1.43;100.00;97473.31;4920380;28;20044;-66
2021/12/20 00:27:32;;;;;;;33.10;13.85;;;;;;;-1.16;100.00;97476.50;4924675;29;20043;-66
2021/12/20 00:29:58;;;;;;;33.78;14.60;;;;;;;-1.44;100.00;97475.19;4927587;29;20127;-65
2021/12/20 00:32:24;;;;;;;30.80;13.18;;;;;;;-1.52;100.00;97475.72;4923049;28;20059;-65
2021/12/20 00:34:50;;;;;;;31.67;13.07;;;;;;;-1.68;100.00;97477.59;4927350;28;20036;-65
2021/12/20 00:42:45;;;;;;;35.45;14.60;;;;;;;-1.47;100.00;97485.69;4936427;28;20099;-64
2021/12/20 00:45:12;;;;;;;34.35;14.15;;;;;;;-1.33;100.00;97475.16;4919366;28;20060;-65
2021/12/20 00:47:38;;;;;;;31.92;13.52;;;;;;;-1.51;100.00;97479.22;4925410;29;20053;-64
2021/12/20 00:50:06;;;;;;;33.40;13.27;;;;;;;-1.38;100.00;97467.94;4918596;29;20088;-66
2021/12/20 00:52:31;;;;;;;27.50;12.63;;;;;;;-1.32;100.00;97453.41;4921245;29;20490;-66
2021/12/20 00:54:57;;;;;;;32.80;13.85;;;;;;;-1.32;100.00;97464.16;4923147;28;20107;-65
2021/12/20 00:57:23;;;;;;;30.75;13.27;;;;;;;-1.28;100.00;97459.84;4918240;29;20371;-65
2021/12/20 00:59:48;;;;;;;33.33;14.77;;;;;;;-1.03;100.00;97461.66;4921413;29;20051;-65
2021/12/20 01:02:14;;;;;;;31.50;12.73;;;;;;;-1.23;100.00;97459.84;4918448;28;20040;-66
2021/12/20 01:04:40;;;;;;;32.97;13.55;;;;;;;-1.37;100.00;97458.78;4923975;28;20039;-66
2021/12/20 01:07:05;;;;;;;35.80;13.68;;;;;;;-1.23;100.00;97456.34;4917399;29;20099;-65
2021/12/20 01:09:31;;;;;;;31.88;13.27;;;;;;;-1.17;100.00;97453.38;4923303;29;20493;-65
2021/12/20 01:12:03;;;;;;;30.55;13.65;;;;;;;-0.92;100.00;97450.91;4923512;29;20050;-65
2021/12/20 01:14:33;;;;;;;33.80;13.80;;;;;;;-1.15;100.00;97453.13;4919586;29;20048;-65
2021/12/20 01:17:04;;;;;;;33.13;13.10;;;;;;;-1.23;100.00;97451.78;4920692;29;20051;-66
2021/12/20 01:19:35;;;;;;;29.85;13.57;;;;;;;-1.32;100.00;97450.72;4923767;29;20039;-64
2021/12/20 01:22:02;;;;;;;29.50;13.50;;;;;;;-1.20;100.00;97447.75;4933882;29;20058;-64
2021/12/20 01:24:28;;;;;;;32.22;13.55;;;;;;;-1.13;100.00;97450.13;4917020;29;20054;-63
2021/12/20 01:26:53;;;;;;;32.05;13.93;;;;;;;-1.18;100.00;97440.22;4921569;29;20055;-65
2021/12/20 01:29:19;;;;;;;37.50;15.65;;;;;;;-1.19;100.00;97441.28;4918818;28;20106;-65
2021/12/20 01:31:44;;;;;;;35.72;14.45;;;;;;;-1.23;100.00;97440.22;4922342;28;20094;-65
2021/12/20 01:34:09;;;;;;;33.72;13.48;;;;;;;-1.04;100.00;97429.72;4912975;29;20485;-65
2021/12/20 01:36:35;;;;;;;36.67;14.38;;;;;;;-1.07;100.00;97436.41;4922625;28;20048;-65
2021/12/20 01:39:00;;;;;;;30.35;13.35;;;;;;;-1.01;100.00;97434.50;4923358;28;20042;-65
2021/12/20 01:41:26;;;;;;;30.95;14.20;;;;;;;-0.89;100.00;97432.31;4909868;29;20130;-65
2021/12/20 01:43:53;;;;;;;29.80;13.00;;;;;;;-0.87;100.00;97427.47;4922298;28;20453;-65
2021/12/20 01:46:19;;;;;;;29.02;13.35;;;;;;;-0.92;100.00;97427.50;4915804;28;20048;-64
2021/12/20 01:48:46;;;;;;;31.38;13.38;;;;;;;-0.87;100.00;97418.63;4912466;29;20050;-64
2021/12/20 01:53:39;;;;;;;29.02;12.57;;;;;;;-0.87;100.00;97424.00;4922933;29;20087;-64
2021/12/20 01:56:07;;;;;;;30.50;14.55;;;;;;;-0.84;100.00;97420.75;4917174;28;20134;-66
2021/12/20 01:58:33;;;;;;;31.25;13.70;;;;;;;-0.82;100.00;97415.91;4922910;28;20508;-65
2021/12/20 02:03:40;;;;;;;27.40;13.77;;;;;;;-0.56;100.00;97421.16;4918597;29;20036;-65
2021/12/20 02:06:12;;;;;;;28.27;13.18;;;;;;;-0.68;100.00;97421.50;4916031;29;20047;-66
2021/12/20 02:08:37;;;;;;;30.25;13.45;;;;;;;-0.63;100.00;97416.91;4921890;28;20039;-66
2021/12/20 02:11:09;;;;;;;25.33;11.93;;;;;;;-0.80;100.00;97409.16;4914847;29;20627;-65
2021/12/20 02:13:37;;;;;;;30.27;12.60;;;;;;;-0.83;100.00;97412.41;4920718;28;20046;-65
2021/12/20 02:16:03;;;;;;;29.25;12.93;;;;;;;-0.67;100.00;97412.34;4919199;29;20123;-65
2021/12/20 02:18:30;;;;;;;33.53;12.82;;;;;;;-0.59;100.00;97423.34;4920733;29;20055;-65
2021/12/20 02:20:57;;;;;;;30.73;13.68;;;;;;;-0.58;100.00;97426.81;4922061;28;20044;-67
2021/12/20 02:23:22;;;;;;;33.35;14.40;;;;;;;-0.54;100.00;97414.44;4913296;28;20823;-65
2021/12/20 02:25:49;;;;;;;28.63;14.75;;;;;;;-0.50;100.00;97423.56;4918543;29;20162;-65
2021/12/20 02:28:17;;;;;;;33.05;14.70;;;;;;;-0.46;100.00;97415.75;4917564;28;20487;-63
2021/12/20 02:36:53;;;;;;;35.05;13.95;;;;;;;-0.45;100.00;97403.88;4921230;28;20070;-65
2021/12/20 02:38:45;;;;;;;32.63;12.85;;;;;;;-0.46;100.00;97405.78;4922028;28;20501;-66
2021/12/20 02:41:18;;;;;;;30.38;13.95;;;;;;;-0.64;100.00;97404.53;4914604;29;20051;-66
2021/12/20 02:43:53;;;;;;;36.63;14.23;;;;;;;-0.52;100.00;97400.69;4931902;28;20040;-66
2021/12/20 02:48:58;;;;;;;34.60;13.70;;;;;;;-0.48;100.00;97410.63;4920733;29;20035;-65
2021/12/20 02:51:26;;;;;;;34.15;13.27;;;;;;;-0.43;100.00;97409.81;4917898;28;20058;-66
2021/12/20 02:53:52;;;;;;;29.13;13.23;;;;;;;-0.51;100.00;97403.09;4928669;28;20063;-67
2021/12/20 02:56:18;;;;;;;29.08;12.98;;;;;;;-0.56;100.00;97400.44;4916702;29;20040;-66
2021/12/20 02:58:44;;;;;;;35.75;13.60;;;;;;;-0.51;100.00;97389.66;4921559;28;20127;-64
2021/12/20 03:01:09;;;;;;;29.55;13.00;;;;;;;-0.56;100.00;97391.56;4915882;28;20036;-66
2021/12/20 03:03:35;;;;;;;32.67;13.90;;;;;;;-0.50;100.00;97388.59;4898246;29;20062;-66
2021/12/20 03:06:18;;;;;;;33.70;15.13;;;;;;;-0.38;100.00;97399.00;4919974;29;20048;-65
2021/12/20 03:08:48;;;;;;;36.70;13.93;;;;;;;-0.32;100.00;97397.09;4921725;29;20106;-66
2021/12/20 03:11:13;;;;;;;;;;;;;;;-0.44;100.00;97387.47;4909349;29;20067;-65
2021/12/20 03:13:39;;;;;;;31.95;13.15;;;;;;;-0.43;100.00;97383.69;4922089;28;20035;-64
2021/12/20 03:16:05;;;;;;;32.45;13.52;;;;;;;-0.41;100.00;97381.53;4916928;28;20043;-64
2021/12/20 03:18:31;;;;;;;31.65;13.70;;;;;;;-0.42;100.00;97387.97;4924106;28;20107;-64
2021/12/20 03:20:56;;;;;;;32.92;12.15;;;;;;;-0.47;100.00;97382.66;4931613;28;20075;-67
2021/12/20 03:23:22;;;;;;;29.67;13.65;;;;;;;-0.74;100.00;97380.34;4921634;28;21003;-66
2021/12/20 03:25:48;;;;;;;29.25;12.98;;;;;;;-0.78;100.00;97376.63;4918356;28;20585;-67
2021/12/20 03:28:13;;;;;;;30.40;13.55;;;;;;;-0.68;100.00;97375.78;4912120;29;20146;-64
2021/12/20 03:30:41;;;;;;;30.15;13.23;;;;;;;-0.62;100.00;97377.34;4919801;28;20050;-65
2021/12/20 03:33:06;;;;;;;33.50;13.25;;;;;;;-0.62;100.00;97371.97;4914277;28;20052;-66
2021/12/20 03:35:32;;;;;;;32.40;13.35;;;;;;;-0.57;100.00;97373.84;4920564;29;20509;-65
2021/12/20 03:37:57;;;;;;;29.92;13.05;;;;;;;-0.50;100.00;97371.63;4919928;28;20056;-65
2021/12/20 03:40:23;;;;;;;32.45;12.75;;;;;;;-0.43;100.00;97364.06;4914439;29;20074;-66
2021/12/20 03:42:49;;;;;;;32.35;13.38;;;;;;;-0.50;100.00;97366.25;4921630;29;20413;-64
2021/12/20 03:45:15;;;;;;;29.38;12.52;;;;;;;-0.80;100.00;97360.75;4917012;29;20044;-65
2021/12/20 03:47:42;;;;;;;38.75;12.80;;;;;;;-0.83;100.00;97365.88;4922914;28;20043;-66
2021/12/20 03:50:09;;;;;;;35.92;14.52;;;;;;;-0.87;100.00;97360.25;4915944;28;20051;-64
2021/12/20 03:52:38;;;;;;;33.83;14.02;;;;;;;-0.79;100.00;97358.88;4922945;29;20035;-66
2021/12/20 03:55:06;;;;;;;32.92;13.23;;;;;;;-0.71;100.00;97358.28;4918255;28;20061;-65
2021/12/20 03:57:33;;;;;;;34.60;13.57;;;;;;;-0.53;100.00;97359.53;4919295;29;20048;-64
2021/12/20 03:59:58;;;;;;;30.90;13.60;;;;;;;-0.49;100.00;97357.09;4920065;29;20054;-64
2021/12/20 04:02:25;;;;;;;34.22;13.50;;;;;;;-1.03;100.00;97367.56;4913463;28;20557;-66
2021/12/20 04:04:51;;;;;;;37.60;14.98;;;;;;;-1.23;100.00;97363.06;4919352;29;20036;-67
2021/12/20 04:07:17;;;;;;;33.80;14.27;;;;;;;-1.23;100.00;97364.97;4927261;28;20099;-66
2021/12/20 04:09:42;;;;;;;37.30;14.85;;;;;;;-1.03;100.00;97364.88;4922372;28;20516;-65
2021/12/20 04:12:09;;;;;;;38.53;14.57;;;;;;;-1.07;100.00;97361.13;4915121;28;20044;-66
2021/12/20 04:14:34;;;;;;;35.05;14.32;;;;;;;-1.42;100.00;97362.88;4921967;28;20056;-67
2021/12/20 04:16:59;;;;;;;39.38;15.90;;;;;;;-1.35;100.00;97359.91;4920570;29;20114;-65
2021/12/20 04:19:25;;;;;;;43.75;16.30;;;;;;;-1.24;100.00;97360.66;4916616;29;20044;-67
2021/12/20 04:21:50;;;;;;;39.13;14.73;;;;;;;-1.00;100.00;97358.16;4923203;29;20042;-66
2021/12/20 04:24:15;;;;;;;36.90;14.00;;;;;;;-1.08;100.00;97359.53;4916963;29;20039;-65
2021/12/20 04:26:41;;;;;;;35.47;14.32;;;;;;;-1.01;100.00;97354.69;4921414;29;20099;-63
2021/12/20 04:29:07;;;;;;;38.05;15.18;;;;;;;-1.13;100.00;97364.09;4916649;29;20126;-65
2021/12/20 04:31:35;;;;;;;33.17;14.02;;;;;;;-1.12;100.00;97363.03;4924157;29;20063;-66
2021/12/20 04:34:01;;;;;;;33.15;14.38;;;;;;;-1.09;100.00;97362.50;4926160;29;20051;-67
2021/12/20 04:36:27;;;;;;;39.58;14.90;;;;;;;-1.20;100.00;97364.41;4920972;28;20530;-66
2021/12/20 04:38:53;;;;;;;36.72;17.42;;;;;;;-1.29;100.00;97363.38;4925858;28;20039;-63
2021/12/20 04:41:18;;;;;;;46.83;17.65;;;;;;;-1.30;100.00;97359.06;4919780;28;20386;-65
2021/12/20 04:43:44;;;;;;;40.95;17.08;;;;;;;-1.30;100.00;97364.44;4925629;28;20151;-65
2021/12/20 04:46:09;;;;;;;44.53;16.38;;;;;;;-1.23;100.00;97367.66;4918808;29;20056;-66
2021/12/20 04:48:35;;;;;;;42.58;16.65;;;;;;;-1.32;100.00;97364.72;4925950;29;20154;-66
2021/12/20 04:51:00;;;;;;;41.85;16.55;;;;;;;-1.20;100.00;97365.22;4926490;28;20044;-64
2021/12/20 04:53:26;;;;;;;39.75;16.05;;;;;;;-0.82;100.00;97367.50;4922175;28;20649;-65
2021/12/20 04:55:51;;;;;;;33.38;14.75;;;;;;;-0.87;100.00;97375.59;4923847;28;20461;-67
2021/12/20 04:58:17;;;;;;;35.28;15.48;;;;;;;-1.04;100.00;97378.63;4921565;29;20043;-65
2021/12/20 05:00:44;;;;;;;41.67;16.02;;;;;;;-1.09;100.00;97384.00;4926838;29;20138;-65
2021/12/20 05:03:09;;;;;;;37.45;16.25;;;;;;;-1.35;100.00;97384.88;4919239;29;20051;-65
2021/12/20 05:05:35;;;;;;;41.72;16.40;;;;;;;-1.10;100.00;97379.69;4923685;29;20050;-65
2021/12/20 05:08:01;;;;;;;45.45;16.20;;;;;;;-1.36;100.00;97375.22;4928549;28;20404;-62
2021/12/20 05:10:33;;;;;;;37.63;16.25;;;;;;;-1.47;100.00;97383.56;4918156;28;20471;-64
2021/12/20 05:13:04;;;;;;;35.60;16.08;;;;;;;-1.48;100.00;97379.25;4924666;28;20050;-64
2021/12/20 05:15:30;;;;;;;42.15;16.60;;;;;;;-1.51;100.00;97382.50;4922783;29;20059;-65
2021/12/20 05:17:56;;;;;;;41.67;17.10;;;;;;;-1.62;100.00;97387.06;4925503;29;20048;-64
2021/12/20 05:20:22;;;;;;;46.30;16.63;;;;;;;-1.61;100.00;97389.50;4919680;28;20051;-65
2021/12/20 05:22:51;;;;;;;46.35;18.38;;;;;;;-1.58;100.00;97388.16;4924177;29;20122;-64
2021/12/20 05:25:17;;;;;;;40.38;16.15;;;;;;;-1.55;100.00;97382.22;4919609;28;20040;-65
2021/12/20 05:27:42;;;;;;;43.80;17.42;;;;;;;-1.54;100.00;97384.66;4928476;29;20575;-66
2021/12/20 05:30:09;;;;;;;46.25;18.80;;;;;;;-1.52;100.00;97379.00;4923182;28;20055;-65
2021/12/20 05:32:36;;;;;;;48.85;17.77;;;;;;;-1.60;100.00;97398.38;4924646;29;20035;-65
2021/12/20 05:35:04;;;;;;;50.28;17.55;;;;;;;-1.64;100.00;97392.75;4924043;28;20095;-66
2021/12/20 05:37:29;;;;;;;46.42;18.15;;;;;;;-1.63;100.00;97393.53;4924801;28;20044;-65
2021/12/20 05:39:55;;;;;;;48.25;19.50;;;;;;;-1.61;100.00;97397.53;4924691;28;20043;-64
2021/12/20 05:42:20;;;;;;;49.67;18.35;;;;;;;-1.56;100.00;97389.50;4917677;28;20131;-65
2021/12/20 05:44:46;;;;;;;52.38;18.75;;;;;;;-1.47;100.00;97392.44;4920820;29;20032;-65
2021/12/20 05:47:11;;;;;;;42.00;15.70;;;;;;;-1.47;100.00;97392.44;4920572;28;20501;-66
2021/12/20 05:49:37;;;;;;;43.25;16.45;;;;;;;-1.31;100.00;97392.41;4922778;29;20046;-63
2021/12/20 05:52:05;;;;;;;42.55;17.27;;;;;;;-1.10;100.00;97380.50;4915839;28;20082;-66
2021/12/20 05:54:31;;;;;;;40.25;16.52;;;;;;;-0.90;100.00;97376.13;4924331;28;20040;-66
2021/12/20 05:56:57;;;;;;;42.40;17.20;;;;;;;-0.98;100.00;97383.69;4922256;29;20051;-66
2021/12/20 05:59:22;;;;;;;36.03;15.63;;;;;;;-0.97;100.00;97384.50;4918275;28;20060;-65
2021/12/20 06:01:48;;;;;;;40.38;16.23;;;;;;;-0.97;100.00;97392.56;4923972;28;20048;-66
2021/12/20 06:04:14;;;;;;;39.95;16.45;;;;;;;-1.28;100.00;97408.78;4919596;28;20067;-66
2021/12/20 06:06:39;;;;;;;38.88;15.77;;;;;;;-1.43;100.00;97406.13;4933403;28;20452;-66
2021/12/20 06:09:04;;;;;;;41.30;16.33;;;;;;;-1.40;100.00;97402.91;4929780;28;20936;-68
2021/12/20 06:11:30;;;;;;;40.30;15.60;;;;;;;-1.55;100.00;97407.22;4928088;28;20131;-66
2021/12/20 06:13:55;;;;;;;43.63;16.30;;;;;;;-1.54;100.00;97399.97;4925445;28;20126;-63
2021/12/20 06:16:21;;;;;;;42.97;17.27;;;;;;;-1.53;100.00;97398.91;4918696;28;20138;-64
2021/12/20 06:18:46;;;;;;;40.30;16.83;;;;;;;-1.54;100.00;97406.13;4921412;28;20130;-65
2021/12/20 06:21:12;;;;;;;40.30;16.45;;;;;;;-1.65;100.00;97407.22;4918727;29;20043;-63
2021/12/20 06:23:37;;;;;;;43.95;17.48;;;;;;;-1.60;100.00;97396.50;4922143;29;20035;-65
2021/12/20 06:26:03;;;;;;;41.55;17.92;;;;;;;-1.57;100.00;97404.00;4920274;29;20086;-68
2021/12/20 06:28:29;;;;;;;47.05;17.50;;;;;;;-1.66;100.00;97400.25;4921502;29;20051;-65
2021/12/20 06:30:54;;;;;;;42.42;16.17;;;;;;;-1.69;100.00;97399.97;4936718;28;20131;-65
2021/12/20 06:33:20;;;;;;;42.95;17.73;;;;;;;-1.68;100.00;97401.59;4918298;28;20044;-65
2021/12/20 06:35:46;;;;;;;39.88;17.13;;;;;;;-1.75;100.00;97397.31;4920660;28;20071;-64
2021/12/20 06:38:18;;;;;;;46.35;17.67;;;;;;;-1.75;100.00;97400.00;4916145;29;20043;-64
2021/12/20 06:40:44;;;;;;;47.50;18.77;;;;;;;-1.75;100.00;97400.00;4921630;28;20068;-64
2021/12/20 06:43:10;;;;;;;48.40;18.90;;;;;;;-1.75;100.00;97393.81;4918535;28;20042;-66
2021/12/20 06:45:35;;;;;;;48.63;18.40;;;;;;;-1.68;100.00;97380.09;4921638;29;20047;-66
2021/12/20 06:48:01;;;;;;;47.17;18.23;;;;;;;-1.64;100.00;97389.22;4922094;29;20046;-65
2021/12/20 06:50:27;;;;;;;51.35;19.20;;;;;;;-1.71;100.00;97388.69;4927856;28;20054;-67
2021/12/20 06:52:52;;;;;;;48.50;18.58;;;;;;;-1.52;100.00;97386.28;4922096;28;20048;-65
2021/12/20 06:55:18;;;;;;;43.08;18.10;;;;;;;-1.63;100.00;97390.84;4917026;28;20040;-62
2021/12/20 06:57:43;;;;;;;45.75;17.63;;;;;;;-1.74;100.00;97393.53;4923275;28;20099;-65
2021/12/20 07:00:09;;;;;;;41.88;17.67;;;;;;;-1.90;100.00;97397.31;4917118;28;20052;-63
2021/12/20 07:02:35;;;;;;;45.17;17.67;;;;;;;-1.83;100.00;97399.72;4921222;29;20074;-65
2021/12/20 07:05:00;;;;;;;45.17;19.50;;;;;;;-1.86;100.00;97409.13;4923675;28;20055;-64
2021/12/20 07:07:26;;;;;;;47.60;20.45;;;;;;;-1.92;100.00;97404.81;4917201;28;20051;-64
2021/12/20 07:09:51;;;;;;;43.92;17.73;;;;;;;-1.84;100.00;97404.28;4924573;28;20043;-64
2021/12/20 07:12:16;;;;;;;48.45;19.00;;;;;;;-1.80;100.00;97409.91;4917226;28;20142;-64
2021/12/20 07:14:42;;;;;;;44.83;18.27;;;;;;;-1.81;100.00;97406.44;4922011;28;20051;-65
2021/12/20 07:17:08;;;;;;;48.47;18.35;;;;;;;-1.72;100.00;97398.66;4915500;28;20043;-65
2021/12/20 07:19:33;;;;;;;48.03;19.13;;;;;;;-1.65;100.00;97403.75;4918160;29;21360;-64
2021/12/20 07:21:59;;;;;;;48.95;19.50;;;;;;;-1.80;100.00;97401.84;4922299;28;20487;-64
2021/12/20 07:24:24;;;;;;;48.53;19.52;;;;;;;-1.82;100.00;97402.16;4916575;28;20047;-65
2021/12/20 07:26:50;;;;;;;50.42;19.27;;;;;;;-1.78;100.00;97400.53;4922522;29;20046;-66
2021/12/20 07:29:19;;;;;;;50.85;20.42;;;;;;;-1.80;100.00;97402.69;4913464;28;20126;-64
2021/12/20 07:31:45;;;;;;;51.63;19.27;;;;;;;-1.80;100.00;97408.06;4922819;28;20135;-64
2021/12/20 07:34:10;;;;;;;51.97;19.55;;;;;;;-1.78;100.00;97405.91;4916010;28;20047;-64
2021/12/20 07:36:37;;;;;;;55.50;20.77;;;;;;;-1.78;100.00;97405.09;4922405;28;20047;-64
2021/12/20 07:39:04;;;;;;;58.88;21.17;;;;;;;-1.77;100.00;97395.97;4918552;28;20107;-65
2021/12/20 07:41:29;;;;;;;52.83;20.27;;;;;;;-1.75;100.00;97400.00;4921901;28;20044;-64
2021/12/20 07:43:55;;;;;;;50.30;20.95;;;;;;;-1.70;100.00;97398.38;4921586;28;20480;-65
2021/12/20 07:46:20;;;;;;;53.92;21.08;;;;;;;-1.67;100.00;97393.28;4916190;29;20040;-65
2021/12/20 07:48:47;;;;;;;126.88;52.90;;;;;;;-1.65;100.00;97395.69;4922428;29;20043;-65
2021/12/20 07:51:12;;;;;;;63.22;24.67;;;;;;;-1.67;100.00;97395.16;4915300;29;20114;-64
2021/12/20 07:53:38;;;;;;;59.70;24.25;;;;;;;-1.53;100.00;97396.22;4920894;28;20450;-64
2021/12/20 07:56:04;;;;;;;49.53;20.70;;;;;;;-1.44;100.00;97393.75;4919019;28;20067;-66
2021/12/20 07:58:30;;;;;;;51.90;21.50;;;;;;;-1.48;100.00;97401.56;4922906;28;20044;-67
2021/12/20 08:00:58;;;;;;;52.13;19.08;;;;;;;-1.49;100.00;97394.59;4922019;29;20048;-66
2021/12/20 08:03:23;;;;;;;49.80;21.75;;;;;;;-1.17;100.00;97390.72;4916380;28;20708;-64
2021/12/20 08:05:48;;;;;;;222.75;105.88;;;;;;;-1.24;100.00;97399.09;4926364;28;20147;-64
2021/12/20 08:08:14;;;;;;;85.82;35.15;;;;;;;-1.11;100.00;97408.47;4920707;28;20099;-66
2021/12/20 08:10:39;;;;;;;64.88;28.17;;;;;;;-0.98;100.00;97393.63;4925161;29;20052;-66
2021/12/20 08:13:05;;;;;;;57.38;25.67;;;;;;;-1.06;100.00;97400.41;4932273;28;20059;-65
2021/12/20 08:15:31;;;;;;;60.85;27.17;;;;;;;-1.10;100.00;97404.69;4923622;29;20443;-62
2021/12/20 08:17:57;;;;;;;48.70;19.83;;;;;;;-1.30;100.00;97410.94;4924418;29;20512;-63
2021/12/20 08:20:23;;;;;;;56.88;24.35;;;;;;;-1.31;100.00;97408.53;4917776;28;20055;-65
2021/12/20 08:22:49;;;;;;;44.83;20.92;;;;;;;-1.32;100.00;97406.91;4926761;29;20130;-66
2021/12/20 08:25:18;;;;;;;62.40;27.90;;;;;;;-1.20;100.00;97405.53;4922257;28;20139;-66
2021/12/20 08:27:44;;;;;;;47.37;20.20;;;;;;;-1.11;100.00;97403.09;4924476;29;20043;-65
2021/12/20 08:30:10;;;;;;;60.88;29.27;;;;;;;-1.12;100.00;97409.53;4915198;29;20796;-65
2021/12/20 08:32:38;;;;;;;64.07;33.17;;;;;;;-0.96;100.00;97404.94;4921608;29;20091;-66
2021/12/20 08:35:06;;;;;;;55.85;24.90;;;;;;;-0.61;100.00;97397.81;4920360;29;20481;-67
2021/12/20 08:37:31;;;;;;;56.15;22.70;;;;;;;-0.74;100.00;97401.88;4924386;29;20051;-65
2021/12/20 08:39:57;;;;;;;45.33;19.17;;;;;;;-0.81;100.00;97412.13;4926032;29;20040;-66
2021/12/20 08:42:22;;;;;;;45.67;18.40;;;;;;;-0.62;100.00;97413.13;4919614;28;20914;-64
2021/12/20 08:44:49;;;;;;;58.42;26.15;;;;;;;-0.54;100.00;97409.06;4923500;28;20106;-66
2021/12/20 08:47:15;;;;;;;48.78;20.77;;;;;;;-0.05;100.00;97410.91;4918622;29;20043;-64
2021/12/20 08:49:41;;;;;;;38.90;17.45;;;;;;;-0.08;100.00;97418.75;4925798;29;20446;-66
2021/12/20 08:52:08;;;;;;;45.85;20.83;;;;;;;-0.21;100.00;97412.09;4919550;29;20048;-64
2021/12/20 08:54:33;;;;;;;49.92;19.05;;;;;;;0.06;100.00;97410.84;4925168;29;20040;-66
2021/12/20 08:56:59;;;;;;;44.45;17.67;;;;;;;0.08;100.00;97404.06;4926545;29;20047;-65
2021/12/20 08:59:25;;;;;;;42.42;18.30;;;;;;;0.19;100.00;97412.88;4917664;29;20553;-67
2021/12/20 09:01:51;;;;;;;75.13;36.97;;;;;;;0.01;100.00;97418.97;4924455;29;20048;-67
2021/12/20 09:04:17;;;;;;;57.10;27.05;;;;;;;-0.05;100.00;97412.81;4922645;28;20044;-66
2021/12/20 09:06:43;;;;;;;41.90;19.10;;;;;;;-0.16;100.00;97414.75;4924936;28;20534;-66
2021/12/20 09:09:12;;;;;;;51.83;24.23;;;;;;;0.02;100.00;97410.59;4920448;28;20052;-67
2021/12/20 09:11:39;;;;;;;44.07;19.83;;;;;;;0.02;100.00;97415.16;4925755;28;20473;-66
2021/12/20 09:14:05;;;;;;;43.42;20.05;;;;;;;0.03;100.00;97409.50;4919134;29;20429;-68
2021/12/20 09:16:30;;;;;;;39.25;19.13;;;;;;;0.33;100.00;97418.44;4923502;29;20043;-68
2021/12/20 09:18:56;;;;;;;41.15;16.30;;;;;;;1.10;100.00;97428.50;4923559;29;20078;-66
2021/12/20 09:21:22;;;;;;;35.08;16.60;;;;;;;1.30;100.00;97417.44;4916942;28;20063;-66
2021/12/20 09:23:48;;;;;;;37.13;17.13;;;;;;;0.82;100.00;97412.03;4925559;28;20035;-65
2021/12/20 09:26:14;;;;;;;36.00;17.27;;;;;;;1.08;100.00;97419.84;4918868;29;20040;-67
2021/12/20 09:28:40;;;;;;;37.50;15.50;;;;;;;1.40;100.00;97426.50;4923826;28;20055;-66
2021/12/20 09:31:07;;;;;;;39.83;17.30;;;;;;;1.86;99.62;97424.00;4920025;28;20820;-66
2021/12/20 09:33:32;;;;;;;35.00;16.27;;;;;;;1.82;95.75;97420.28;4923941;28;20039;-67
2021/12/20 09:36:00;;;;;;;31.95;14.95;;;;;;;2.37;93.76;97413.50;4935286;28;20505;-65
2021/12/20 09:38:28;;;;;;;34.83;15.32;;;;;;;2.47;92.35;97424.16;4920654;29;20048;-66
2021/12/20 09:43:43;;;;;;;38.95;15.90;;;;;;;2.57;91.09;97413.16;4922147;29;20051;-66
2021/12/20 09:46:09;;;;;;;36.05;15.50;;;;;;;1.76;95.53;97424.13;4918182;29;20055;-65
2021/12/20 09:48:35;;;;;;;40.72;18.73;;;;;;;2.01;94.93;97417.56;4921232;29;20048;-65
2021/12/20 09:51:02;;;;;;;30.48;14.70;;;;;;;1.85;98.16;97413.47;4924784;28;20048;-67
2021/12/20 09:53:28;;;;;;;34.20;17.45;;;;;;;2.75;93.67;97413.38;4920588;29;20047;-67
2021/12/20 09:55:54;;;;;;;33.33;15.10;;;;;;;3.38;87.62;97420.84;4922285;29;20063;-66
2021/12/20 09:58:21;;;;;;;32.67;16.00;;;;;;;3.95;86.20;97409.59;4916292;29;20062;-63
2021/12/20 10:00:48;;;;;;;30.98;13.85;;;;;;;3.00;86.76;97399.38;4923608;28;20058;-65
2021/12/20 10:03:14;;;;;;;30.10;14.60;;;;;;;3.62;86.98;97398.16;4918645;29;20039;-64
2021/12/20 10:05:41;;;;;;;27.05;13.10;;;;;;;4.45;80.72;97402.47;4921920;29;20054;-66
2021/12/20 10:08:14;;;;;;;29.80;16.98;;;;;;;2.93;86.59;97401.69;4920245;28;20075;-66
2021/12/20 10:10:46;;;;;;;25.88;13.32;;;;;;;3.60;86.30;97394.94;4917630;29;20059;-63
2021/12/20 10:13:22;;;;;;;25.95;12.70;;;;;;;3.57;82.60;97399.06;4912128;29;20056;-64
2021/12/20 10:15:48;;;;;;;28.00;12.85;;;;;;;3.85;83.01;97401.69;4921875;29;20058;-62
2021/12/20 10:18:14;;;;;;;32.22;12.65;;;;;;;3.89;82.37;97391.03;4917744;29;20047;-63
2021/12/20 10:20:40;;;;;;;25.13;12.13;;;;;;;4.53;80.29;97396.31;4924408;29;20044;-65
2021/12/20 10:23:10;;;;;;;25.33;12.02;;;;;;;4.58;78.41;97396.19;4919837;29;20075;-66
2021/12/20 10:25:36;;;;;;;24.75;12.60;;;;;;;4.49;79.45;97400.75;4921739;29;20059;-65
2021/12/20 10:28:08;;;;;;;25.52;12.77;;;;;;;3.91;82.41;97389.66;4923583;29;20051;-66
2021/12/20 10:30:38;;;;;;;30.40;13.02;;;;;;;5.65;77.65;97391.63;4921922;28;20052;-64
2021/12/20 10:33:07;;;;;;;25.75;12.88;;;;;;;7.08;68.90;97388.94;4920501;29;20131;-68
2021/12/20 10:35:39;;;;;;;22.77;11.23;;;;;;;7.67;65.89;97390.88;4923496;29;20058;-62
2021/12/20 10:38:31;;;;;;;26.38;12.65;;;;;;;7.25;64.67;97386.09;4919210;29;20051;-63
2021/12/20 10:41:06;;;;;;;27.17;12.77;;;;;;;7.18;66.06;97376.88;4924390;29;20476;-65
2021/12/20 10:43:45;;;;;;;24.60;12.82;;;;;;;7.07;66.06;97390.03;4905604;29;20044;-66
2021/12/20 10:46:16;;;;;;;30.40;11.98;;;;;;;6.50;67.02;97381.09;4917133;29;20050;-65
2021/12/20 10:48:44;;;;;;;20.30;10.65;;;;;;;5.96;69.26;97375.22;4923309;29;20122;-63
2021/12/20 10:51:21;;;;;;;22.02;11.20;;;;;;;5.70;71.49;97373.25;4917186;29;20054;-63
2021/12/20 10:53:56;;;;;;;22.08;11.43;;;;;;;3.22;81.79;97368.94;4922798;29;20097;-62
2021/12/20 10:56:22;;;;;;;18.65;10.02;;;;;;;3.03;83.80;97365.53;4922731;29;20060;-66
2021/12/20 10:58:47;;;;;;;21.15;12.07;;;;;;;2.64;87.39;97369.50;4928320;29;20089;-62
2021/12/20 11:01:51;;;;;;;21.85;10.70;;;;;;;3.07;85.22;97361.09;4916389;29;20139;-63
2021/12/20 11:04:22;;;;;;;24.20;10.90;;;;;;;3.03;86.61;97368.22;4910948;29;20044;-65
2021/12/20 11:09:21;;;;;;;25.08;12.35;;;;;;;2.66;88.55;97359.97;4918844;29;20537;-64
2021/12/20 11:11:50;;;;;;;27.23;12.20;;;;;;;3.33;90.01;97357.88;4924615;29;20135;-63
2021/12/20 11:14:18;;;;;;;21.42;10.15;;;;;;;3.94;80.61;97361.13;4921976;29;20050;-65
2021/12/20 11:16:50;;;;;;;21.33;10.93;;;;;;;3.91;80.55;97359.84;4921438;29;20047;-63
2021/12/20 11:19:20;;;;;;;22.23;10.48;;;;;;;5.45;74.41;97371.28;4918827;29;20067;-65
2021/12/20 11:21:47;;;;;;;;;;;;;;;6.30;69.29;97360.81;4917913;29;20048;-65
2021/12/20 11:24:17;;;;;;;15.55;8.48;;;;;;;4.91;71.30;97355.16;4913025;29;19919;-63
2021/12/20 11:26:42;;;;;;;22.42;10.52;;;;;;;4.53;75.61;97350.19;4922759;29;20095;-65
2021/12/20 11:29:09;;;;;;;19.55;9.10;;;;;;;5.54;75.37;97348.44;4916586;29;20043;-68
2021/12/20 11:31:35;;;;;;;18.85;8.98;;;;;;;5.90;71.33;97352.00;4922297;29;20051;-66
2021/12/20 11:34:01;;;;;;;35.63;13.90;;;;;;;6.02;70.83;97348.66;4920869;28;20055;-63